createdAt,value
2023-06-15T00:00:01.959Z,16.67
2023-06-15T00:02:42.025Z,16.93
2023-06-15T00:05:11.083Z,16.97
2023-06-15T00:07:38.810Z,16.95
2023-06-15T00:10:07.612Z,16.49
2023-06-15T00:12:35.478Z,16.52
2023-06-15T00:15:04.287Z,16.87
2023-06-15T00:17:33.380Z,17.33
2023-06-15T00:20:05.691Z,17.25
2023-06-15T00:22:35.757Z,17.12
2023-06-15T00:25:03.667Z,17.31
2023-06-15T00:27:31.378Z,16.37
2023-06-15T00:29:59.184Z,16.43
2023-06-15T00:32:27.117Z,16.44
2023-06-15T00:34:55.368Z,16.36
2023-06-15T00:37:23.331Z,15.67
2023-06-15T00:39:51.242Z,15.65
2023-06-15T00:42:18.929Z,15.34
2023-06-15T00:44:46.953Z,16.19
2023-06-15T00:47:22.111Z,16.20
2023-06-15T00:49:50.894Z,15.31
2023-06-15T00:52:18.822Z,15.75
2023-06-15T00:54:47.632Z,15.67
2023-06-15T00:57:16.891Z,15.68
2023-06-15T00:59:44.815Z,15.22
2023-06-15T01:02:14.204Z,15.43
2023-06-15T01:04:42.039Z,16.37
2023-06-15T01:07:12.231Z,15.73
2023-06-15T01:09:43.795Z,15.47
2023-06-15T01:12:13.829Z,15.40
2023-06-15T01:14:42.594Z,15.06
2023-06-15T01:17:16.827Z,14.79
2023-06-15T01:20:05.863Z,13.61
2023-06-15T01:23:06.508Z,13.51
2023-06-15T01:25:47.189Z,13.87
2023-06-15T01:28:21.297Z,13.03
2023-06-15T01:30:54.585Z,12.15
2023-06-15T01:33:24.147Z,12.74
2023-06-15T01:35:51.979Z,13.23
2023-06-15T01:38:25.153Z,12.26
2023-06-15T01:40:54.547Z,12.42
2023-06-15T01:43:29.018Z,11.76
2023-06-15T01:45:57.817Z,12.26
2023-06-15T01:48:27.105Z,13.25
2023-06-15T01:50:55.553Z,13.20
2023-06-15T01:53:24.752Z,13.02
2023-06-15T01:55:52.991Z,12.85
2023-06-15T01:58:20.776Z,13.25
2023-06-15T02:00:48.904Z,12.76
2023-06-15T02:03:16.847Z,12.31
2023-06-15T02:05:44.708Z,12.82
2023-06-15T02:08:16.350Z,13.70
2023-06-15T02:10:44.087Z,14.55
2023-06-15T02:13:13.795Z,13.83
2023-06-15T02:15:41.982Z,13.94
2023-06-15T02:18:16.427Z,14.59
2023-06-15T02:20:46.532Z,13.58
2023-06-15T02:23:14.880Z,13.73
2023-06-15T02:25:42.635Z,13.82
2023-06-15T02:28:10.595Z,13.60
2023-06-15T02:30:39.617Z,14.48
2023-06-15T02:33:09.141Z,13.94
2023-06-15T02:35:37.370Z,13.62
2023-06-15T02:38:05.032Z,13.94
2023-06-15T02:40:32.777Z,13.91
2023-06-15T02:43:01.041Z,14.34
2023-06-15T02:45:28.870Z,14.70
2023-06-15T02:47:57.430Z,14.93
2023-06-15T02:50:25.623Z,15.14
2023-06-15T02:53:13.397Z,14.70
2023-06-15T02:55:43.445Z,14.88
2023-06-15T02:58:14.391Z,14.75
2023-06-15T03:01:25.858Z,13.73
2023-06-15T03:03:57.401Z,14.21
2023-06-15T03:06:26.731Z,13.22
2023-06-15T03:08:56.525Z,12.25
2023-06-15T03:11:28.063Z,11.40
2023-06-15T03:13:56.572Z,11.58
2023-06-15T03:16:26.453Z,11.93
2023-06-15T03:18:55.861Z,11.76
2023-06-15T03:21:25.894Z,11.56
2023-06-15T03:23:56.017Z,12.31
2023-06-15T03:26:28.234Z,13.30
2023-06-15T03:28:58.728Z,14.21
2023-06-15T03:31:34.571Z,14.27
2023-06-15T03:34:03.701Z,14.32
2023-06-15T03:36:32.790Z,14.25
2023-06-15T03:39:00.620Z,14.71
2023-06-15T03:41:28.658Z,14.94
2023-06-15T03:43:58.230Z,14.64
2023-06-15T03:46:26.297Z,14.77
2023-06-15T03:48:54.317Z,15.09
2023-06-15T03:51:22.419Z,13.69
2023-06-15T03:53:50.148Z,14.28
2023-06-15T03:56:17.965Z,13.16
2023-06-15T03:58:45.777Z,13.34
2023-06-15T04:01:14.143Z,14.35
2023-06-15T04:03:42.153Z,14.18
2023-06-15T04:06:10.069Z,14.80
2023-06-15T04:08:38.061Z,15.70
2023-06-15T04:11:06.572Z,16.35
2023-06-15T04:13:34.400Z,15.78
2023-06-15T04:16:03.682Z,16.45
2023-06-15T04:18:31.448Z,16.39
2023-06-15T04:20:59.247Z,16.59
2023-06-15T04:23:27.163Z,16.28
2023-06-15T04:25:54.909Z,16.38
2023-06-15T04:28:22.693Z,15.80
2023-06-15T04:31:06.112Z,16.10
2023-06-15T04:33:35.140Z,15.62
2023-06-15T04:36:04.495Z,15.58
2023-06-15T04:38:32.376Z,14.26
2023-06-15T04:41:01.917Z,14.43
2023-06-15T04:43:30.048Z,14.57
2023-06-15T04:45:58.137Z,13.68
2023-06-15T04:48:28.421Z,13.72
2023-06-15T04:50:57.616Z,15.48
2023-06-15T04:53:25.583Z,15.22
2023-06-15T04:55:53.608Z,15.63
2023-06-15T04:58:21.590Z,15.70
2023-06-15T05:00:50.367Z,15.62
2023-06-15T05:03:20.073Z,14.50
2023-06-15T05:05:48.058Z,15.43
2023-06-15T05:08:16.590Z,15.72
2023-06-15T05:10:46.785Z,16.62
2023-06-15T05:13:17.272Z,16.22
2023-06-15T05:15:45.190Z,17.15
2023-06-15T05:18:15.028Z,17.42
2023-06-15T05:20:43.049Z,17.72
2023-06-15T05:23:10.860Z,17.13
2023-06-15T05:25:40.797Z,16.52
2023-06-15T05:28:08.834Z,17.25
2023-06-15T05:30:39.751Z,16.86
2023-06-15T05:33:07.700Z,16.25
2023-06-15T05:35:35.997Z,16.98
2023-06-15T05:38:03.748Z,17.08
2023-06-15T05:40:33.878Z,17.56
2023-06-15T05:43:01.638Z,17.82
2023-06-15T05:45:31.381Z,17.73
2023-06-15T05:48:03.749Z,17.67
2023-06-15T05:50:32.821Z,18.14
2023-06-15T05:53:01.293Z,17.94
2023-06-15T05:55:30.108Z,18.81
2023-06-15T05:57:58.057Z,18.19
2023-06-15T06:00:27.047Z,17.50
2023-06-15T06:02:59.398Z,17.58
2023-06-15T06:05:38.161Z,18.37
2023-06-15T06:08:06.347Z,18.70
2023-06-15T06:10:34.631Z,18.72
2023-06-15T06:13:16.760Z,18.46
2023-06-15T06:15:44.504Z,19.22
2023-06-15T06:18:12.253Z,19.60
2023-06-15T06:20:40.783Z,19.71
2023-06-15T06:23:09.350Z,19.75
2023-06-15T06:25:37.100Z,19.76
2023-06-15T06:28:05.616Z,20.37
2023-06-15T06:30:33.419Z,20.10
2023-06-15T06:33:03.460Z,20.27
2023-06-15T06:35:31.594Z,19.27
2023-06-15T06:37:59.425Z,20.36
2023-06-15T06:40:27.446Z,21.61
2023-06-15T06:42:55.294Z,22.13
2023-06-15T06:45:23.023Z,21.26
2023-06-15T06:47:50.714Z,21.54
2023-06-15T06:50:18.450Z,22.35
2023-06-15T06:52:46.185Z,22.22
2023-06-15T06:55:14.117Z,22.69
2023-06-15T06:57:41.959Z,21.68
2023-06-15T07:00:11.749Z,21.47
2023-06-15T07:02:40.268Z,20.65
2023-06-15T07:05:08.332Z,20.63
2023-06-15T07:07:36.067Z,20.61
2023-06-15T07:10:04.135Z,20.55
2023-06-15T07:12:31.906Z,21.08
2023-06-15T07:14:59.612Z,21.12
2023-06-15T07:17:27.468Z,21.95
2023-06-15T07:19:55.272Z,21.22
2023-06-15T07:22:23.065Z,21.27
2023-06-15T07:24:51.836Z,21.61
2023-06-15T07:27:20.344Z,21.44
2023-06-15T07:29:48.731Z,20.19
2023-06-15T07:32:16.542Z,20.93
2023-06-15T07:34:44.292Z,21.10
2023-06-15T07:37:12.487Z,21.30
2023-06-15T07:39:40.239Z,21.99
2023-06-15T07:42:08.583Z,21.53
2023-06-15T07:44:36.608Z,21.15
2023-06-15T07:47:04.779Z,20.85
2023-06-15T07:49:44.874Z,20.87
2023-06-15T07:52:13.968Z,20.62
2023-06-15T07:54:43.021Z,21.90
2023-06-15T07:57:11.297Z,22.59
2023-06-15T07:59:39.178Z,22.56
2023-06-15T08:02:07.368Z,22.21
2023-06-15T08:04:35.102Z,22.50
2023-06-15T08:07:02.921Z,22.74
2023-06-15T08:09:30.798Z,22.41
2023-06-15T08:11:58.649Z,22.34
2023-06-15T08:14:26.328Z,21.61
2023-06-15T08:16:54.490Z,20.83
2023-06-15T08:19:22.226Z,19.81
2023-06-15T08:21:49.976Z,20.55
2023-06-15T08:24:17.813Z,20.86
2023-06-15T08:26:45.952Z,20.99
2023-06-15T08:29:23.412Z,21.42
2023-06-15T08:31:52.795Z,21.13
2023-06-15T08:34:20.598Z,21.28
2023-06-15T08:36:48.404Z,21.82
2023-06-15T08:39:17.591Z,22.40
2023-06-15T08:41:49.376Z,23.10
2023-06-15T08:44:19.634Z,22.49
2023-06-15T08:46:48.154Z,23.24
2023-06-15T08:49:16.280Z,22.98
2023-06-15T08:51:46.166Z,22.79
2023-06-15T08:54:14.007Z,20.88
2023-06-15T08:56:42.268Z,21.03
2023-06-15T08:59:10.401Z,21.82
2023-06-15T09:01:41.575Z,22.05
2023-06-15T09:04:09.677Z,21.65
2023-06-15T09:06:37.680Z,22.06
2023-06-15T09:09:06.225Z,23.18
2023-06-15T09:11:41.820Z,22.78
2023-06-15T09:14:11.234Z,23.14
2023-06-15T09:16:42.655Z,23.46
2023-06-15T09:19:12.771Z,23.39
2023-06-15T09:21:52.791Z,23.12
2023-06-15T09:24:24.511Z,22.88
2023-06-15T09:26:52.703Z,22.83
2023-06-15T09:29:20.566Z,23.38
2023-06-15T09:31:48.329Z,23.66
2023-06-15T09:34:16.120Z,22.45
2023-06-15T09:36:48.166Z,22.67
2023-06-15T09:39:23.794Z,24.39
2023-06-15T09:41:59.753Z,23.86
2023-06-15T09:44:28.849Z,24.14
2023-06-15T09:47:01.824Z,24.02
2023-06-15T09:49:32.263Z,22.83
2023-06-15T09:52:00.891Z,24.76
2023-06-15T09:54:33.223Z,26.32
2023-06-15T09:57:02.564Z,26.22
2023-06-15T09:59:30.701Z,22.91
2023-06-15T10:02:01.326Z,24.31
2023-06-15T10:04:37.231Z,25.86
2023-06-15T10:07:06.690Z,25.37
2023-06-15T10:09:57.932Z,26.50
2023-06-15T10:12:29.817Z,26.25
2023-06-15T10:15:08.525Z,25.81
2023-06-15T10:17:39.073Z,25.84
2023-06-15T10:20:18.393Z,25.70
2023-06-15T10:23:05.218Z,23.81
2023-06-15T10:25:34.003Z,25.12
2023-06-15T10:28:10.566Z,22.30
2023-06-15T10:31:01.452Z,22.45
2023-06-15T10:33:53.313Z,23.64
2023-06-15T10:36:26.841Z,23.50
2023-06-15T10:39:27.639Z,23.73
2023-06-15T10:41:58.542Z,24.24
2023-06-15T10:44:33.514Z,24.76
2023-06-15T10:47:13.342Z,22.88
2023-06-15T10:49:53.403Z,23.42
2023-06-15T10:52:21.291Z,21.16
2023-06-15T10:54:49.072Z,19.25
2023-06-15T10:57:20.695Z,20.33
2023-06-15T10:59:50.974Z,19.52
2023-06-15T11:02:28.164Z,19.87
2023-06-15T11:05:13.514Z,20.60
2023-06-15T11:07:44.724Z,20.08
2023-06-15T11:10:27.697Z,19.64
2023-06-15T11:13:06.914Z,21.08
2023-06-15T11:15:37.114Z,21.91
2023-06-15T11:18:16.208Z,22.58
2023-06-15T11:21:00.777Z,21.99
2023-06-15T11:23:34.707Z,22.63
2023-06-15T11:26:03.239Z,22.90
2023-06-15T11:28:37.506Z,24.27
2023-06-15T11:31:08.672Z,23.26
2023-06-15T11:33:42.717Z,21.62
2023-06-15T11:36:11.910Z,22.49
2023-06-15T11:38:39.793Z,22.70
2023-06-15T11:41:11.334Z,22.68
2023-06-15T11:43:50.432Z,22.93
2023-06-15T11:46:24.761Z,21.97
2023-06-15T11:48:57.991Z,22.87
2023-06-15T11:51:26.625Z,22.63
2023-06-15T11:53:55.012Z,22.93
2023-06-15T11:56:24.211Z,22.78
2023-06-15T11:58:52.138Z,23.33
2023-06-15T12:01:21.858Z,22.97
2023-06-15T12:06:23.036Z,24.33
2023-06-15T12:08:55.650Z,24.50
2023-06-15T12:11:24.826Z,24.53
2023-06-15T12:13:52.539Z,24.02
2023-06-15T12:16:21.087Z,23.65
2023-06-15T12:18:56.258Z,24.38
2023-06-15T12:21:24.247Z,24.71
2023-06-15T12:23:52.648Z,25.23
2023-06-15T12:26:23.542Z,25.66
2023-06-15T12:28:51.427Z,25.45
2023-06-15T12:31:19.237Z,25.20
2023-06-15T12:33:55.429Z,26.44
2023-06-15T12:36:24.142Z,26.33
2023-06-15T12:38:52.105Z,27.13
2023-06-15T12:41:20.018Z,27.43
2023-06-15T12:43:47.675Z,27.59
2023-06-15T12:46:15.479Z,26.45
2023-06-15T12:48:43.158Z,27.20
2023-06-15T12:51:11.080Z,27.30
2023-06-15T12:53:39.008Z,27.15
2023-06-15T12:56:07.688Z,26.71
2023-06-15T12:58:35.548Z,25.92
2023-06-15T13:01:03.306Z,25.39
2023-06-15T13:03:31.500Z,24.97
2023-06-15T13:05:59.320Z,25.18
2023-06-15T13:08:27.122Z,25.41
2023-06-15T13:10:54.892Z,25.86
2023-06-15T13:13:23.293Z,24.86
2023-06-15T13:15:51.177Z,25.13
2023-06-15T13:18:19.058Z,25.94
2023-06-15T13:20:46.813Z,26.06
2023-06-15T13:23:15.986Z,26.63
2023-06-15T13:25:43.747Z,26.95
2023-06-15T13:28:11.793Z,26.86
2023-06-15T13:30:39.692Z,25.98
2023-06-15T13:33:07.464Z,26.57
2023-06-15T13:35:35.435Z,26.02
2023-06-15T13:38:03.812Z,25.98
2023-06-15T13:40:31.778Z,25.65
2023-06-15T13:42:59.962Z,26.63
2023-06-15T13:45:27.740Z,26.98
2023-06-15T13:48:53.582Z,27.34
2023-06-15T13:51:21.519Z,27.31
2023-06-15T13:53:49.426Z,27.24
2023-06-15T13:56:17.650Z,25.24
2023-06-15T13:58:45.487Z,25.83
2023-06-15T14:01:13.250Z,26.57
2023-06-15T14:03:42.559Z,26.73
2023-06-15T14:06:10.740Z,26.75
2023-06-15T14:08:38.900Z,25.16
2023-06-15T14:11:06.710Z,25.73
2023-06-15T14:13:36.570Z,26.46
2023-06-15T14:16:06.160Z,26.54
2023-06-15T14:18:34.249Z,26.99
2023-06-15T14:21:02.085Z,27.45
2023-06-15T14:23:29.866Z,27.32
2023-06-15T14:25:58.507Z,27.17
2023-06-15T14:28:26.799Z,25.60
2023-06-15T14:30:54.554Z,26.29
2023-06-15T14:33:23.433Z,26.68
2023-06-15T14:35:51.359Z,27.41
2023-06-15T14:41:30.658Z,26.47
2023-06-15T14:43:58.568Z,27.02
2023-06-15T14:46:26.412Z,27.58
2023-06-15T14:48:54.143Z,28.23
2023-06-15T14:51:21.880Z,28.25
2023-06-15T14:53:49.591Z,28.21
2023-06-15T14:56:18.561Z,28.74
2023-06-15T14:58:46.609Z,28.44
2023-06-15T15:01:14.475Z,28.71
2023-06-15T15:03:42.367Z,28.72
2023-06-15T15:06:10.213Z,28.07
2023-06-15T15:08:37.879Z,28.34
2023-06-15T15:11:05.683Z,27.75
2023-06-15T15:13:33.364Z,28.24
2023-06-15T15:16:01.086Z,27.78
2023-06-15T15:18:28.866Z,27.07
2023-06-15T15:21:01.044Z,27.15
2023-06-15T15:23:28.833Z,26.72
2023-06-15T15:26:00.357Z,26.76
2023-06-15T15:28:30.199Z,26.62
2023-06-15T15:30:58.735Z,27.13
2023-06-15T15:33:26.672Z,27.73
2023-06-15T15:35:54.454Z,27.94
2023-06-15T15:38:22.549Z,28.43
2023-06-15T15:40:51.474Z,27.01
2023-06-15T15:43:19.360Z,27.56
2023-06-15T15:45:47.144Z,28.26
2023-06-15T15:48:14.912Z,28.15
2023-06-15T15:50:42.703Z,28.09
2023-06-15T15:53:10.531Z,27.28
2023-06-15T15:55:38.394Z,27.60
2023-06-15T15:58:06.173Z,28.07
2023-06-15T16:00:34.268Z,26.65
2023-06-15T16:03:02.573Z,26.76
2023-06-15T16:05:31.197Z,24.86
2023-06-15T16:08:01.681Z,23.73
2023-06-15T16:10:29.402Z,23.94
2023-06-15T16:12:57.429Z,25.92
2023-06-15T16:15:25.190Z,26.76
2023-06-15T16:17:53.160Z,26.41
2023-06-15T16:20:24.247Z,27.05
2023-06-15T16:22:51.985Z,27.74
2023-06-15T16:25:20.057Z,28.27
2023-06-15T16:27:47.917Z,28.07
2023-06-15T16:30:16.635Z,27.14
2023-06-15T16:32:44.781Z,25.72
2023-06-15T16:35:12.606Z,25.49
2023-06-15T16:37:41.187Z,25.95
2023-06-15T16:40:09.770Z,26.56
2023-06-15T16:42:37.702Z,26.61
2023-06-15T16:45:06.727Z,27.09
2023-06-15T16:47:37.808Z,26.42
2023-06-15T16:50:07.504Z,26.14
2023-06-15T16:52:36.292Z,27.07
2023-06-15T16:55:04.892Z,27.82
2023-06-15T16:57:34.138Z,28.16
2023-06-15T17:00:02.114Z,27.31
2023-06-15T17:02:32.196Z,26.55
2023-06-15T17:05:00.068Z,26.14
2023-06-15T17:07:27.940Z,27.05
2023-06-15T17:09:56.054Z,27.34
2023-06-15T17:12:24.060Z,27.90
2023-06-15T17:14:51.839Z,27.69
2023-06-15T17:17:19.568Z,27.57
2023-06-15T17:19:47.369Z,27.79
2023-06-15T17:22:15.196Z,27.78
2023-06-15T17:24:43.070Z,27.89
2023-06-15T17:27:12.196Z,27.56
2023-06-15T17:29:39.909Z,27.38
2023-06-15T17:32:09.992Z,27.18
2023-06-15T17:34:39.292Z,27.47
2023-06-15T17:37:07.166Z,27.31
2023-06-15T17:39:34.947Z,27.10
2023-06-15T17:42:02.703Z,27.10
2023-06-15T17:44:30.506Z,26.97
2023-06-15T17:46:58.355Z,27.03
2023-06-15T17:49:26.315Z,26.87
2023-06-15T17:51:54.034Z,25.79
2023-06-15T17:54:21.864Z,25.96
2023-06-15T17:56:51.005Z,25.41
2023-06-15T17:59:18.903Z,25.41
2023-06-15T18:01:46.919Z,25.21
2023-06-15T18:04:14.870Z,25.62
2023-06-15T18:06:42.687Z,25.84
2023-06-15T18:09:14.286Z,25.64
2023-06-15T18:11:42.146Z,25.36
2023-06-15T18:14:10.892Z,25.30
2023-06-15T18:16:39.473Z,25.51
2023-06-15T18:19:07.529Z,25.52
2023-06-15T18:21:35.474Z,25.53
2023-06-15T18:24:04.173Z,25.40
2023-06-15T18:26:31.896Z,25.28
2023-06-15T18:29:00.704Z,24.92
2023-06-15T18:31:28.402Z,24.33
2023-06-15T18:33:57.425Z,23.82
2023-06-15T18:36:25.202Z,24.15
2023-06-15T18:38:53.212Z,23.46
2023-06-15T18:41:21.111Z,24.07
2023-06-15T18:43:48.847Z,24.11
2023-06-15T18:46:19.647Z,24.17
2023-06-15T18:48:47.455Z,22.90
2023-06-15T18:51:15.175Z,21.70
2023-06-15T18:53:42.933Z,22.89
2023-06-15T18:56:11.155Z,23.06
2023-06-15T18:58:41.000Z,22.95
2023-06-15T19:01:08.864Z,23.30
2023-06-15T19:03:37.267Z,23.04
2023-06-15T19:06:05.404Z,23.47
2023-06-15T19:08:33.107Z,22.05
2023-06-15T19:11:01.244Z,19.91
2023-06-15T19:13:31.859Z,17.18
2023-06-15T19:16:03.011Z,17.42
2023-06-15T19:18:31.581Z,17.12
2023-06-15T19:21:03.100Z,17.01
2023-06-15T19:23:31.010Z,16.91
2023-06-15T19:25:58.791Z,17.04
2023-06-15T19:28:26.604Z,16.77
2023-06-15T19:30:54.337Z,17.44
2023-06-15T19:33:22.132Z,18.03
2023-06-15T19:35:51.765Z,18.39
2023-06-15T19:38:19.540Z,18.62
2023-06-15T19:40:49.666Z,18.99
2023-06-15T19:43:17.428Z,19.01
2023-06-15T19:45:45.524Z,18.67
2023-06-15T19:48:13.700Z,18.35
2023-06-15T19:50:41.391Z,17.86
2023-06-15T19:53:09.264Z,17.59
2023-06-15T19:55:36.939Z,17.29
2023-06-15T19:58:04.802Z,17.65
2023-06-15T20:00:32.479Z,18.10
2023-06-15T20:03:00.318Z,18.70
2023-06-15T20:05:28.013Z,18.48
2023-06-15T20:07:55.781Z,17.61
2023-06-15T20:10:23.636Z,17.70
2023-06-15T20:12:51.647Z,17.47
2023-06-15T20:15:21.014Z,17.43
2023-06-15T20:17:48.748Z,17.53
2023-06-15T20:20:16.536Z,17.32
2023-06-15T20:22:44.514Z,17.34
2023-06-15T20:25:12.196Z,17.61
2023-06-15T20:27:42.221Z,17.39
2023-06-15T20:30:10.156Z,17.80
2023-06-15T20:32:38.017Z,18.58
2023-06-15T20:35:06.455Z,19.47
2023-06-15T20:37:34.221Z,20.06
2023-06-15T20:40:02.022Z,20.36
2023-06-15T20:42:29.962Z,20.78
2023-06-15T20:44:58.376Z,20.61
2023-06-15T20:47:26.193Z,20.71
2023-06-15T20:49:54.027Z,21.45
2023-06-15T20:52:22.859Z,21.25
2023-06-15T20:54:50.835Z,21.48
2023-06-15T20:57:18.560Z,21.97
2023-06-15T20:59:46.313Z,21.97
2023-06-15T21:02:14.361Z,22.08
2023-06-15T21:04:42.110Z,22.07
2023-06-15T21:07:09.855Z,22.13
2023-06-15T21:09:37.682Z,22.14
2023-06-15T21:12:06.914Z,21.66
2023-06-15T21:14:34.834Z,21.59
2023-06-15T21:17:02.862Z,21.60
2023-06-15T21:19:30.807Z,21.57
2023-06-15T21:22:01.248Z,20.17
2023-06-15T21:24:29.019Z,20.36
2023-06-15T21:26:56.792Z,20.76
2023-06-15T21:29:24.512Z,21.06
2023-06-15T21:31:52.179Z,20.73
2023-06-15T21:34:20.484Z,21.02
2023-06-15T21:36:48.155Z,20.60
2023-06-15T21:39:17.203Z,20.68
2023-06-15T21:41:44.892Z,20.55
2023-06-15T21:44:12.660Z,19.94
2023-06-15T21:46:41.357Z,18.95
2023-06-15T21:49:09.055Z,18.32
2023-06-15T21:51:36.819Z,18.29
2023-06-15T21:54:04.574Z,18.69
2023-06-15T21:56:32.272Z,18.42
2023-06-15T21:59:03.437Z,18.08
2023-06-15T22:01:33.615Z,17.43
2023-06-15T22:04:02.285Z,17.35
2023-06-15T22:06:30.050Z,18.25
2023-06-15T22:08:57.860Z,17.79
2023-06-15T22:11:26.777Z,17.62
2023-06-15T22:13:58.007Z,17.86
2023-06-15T22:16:26.811Z,18.60
2023-06-15T22:18:55.286Z,18.96
2023-06-15T22:21:23.087Z,18.28
2023-06-15T22:23:50.819Z,17.29
2023-06-15T22:26:20.010Z,16.44
2023-06-15T22:28:47.800Z,17.57
2023-06-15T22:31:15.687Z,18.83
2023-06-15T22:33:43.521Z,18.90
2023-06-15T22:36:11.308Z,19.37
2023-06-15T22:38:39.592Z,19.38
2023-06-15T22:41:08.022Z,19.79
2023-06-15T22:43:35.851Z,19.45
2023-06-15T22:46:04.168Z,19.26
2023-06-15T22:48:32.206Z,19.12
2023-06-15T22:50:59.850Z,16.92
2023-06-15T22:53:27.548Z,16.90
2023-06-15T22:55:55.352Z,17.59
2023-06-15T22:58:23.123Z,18.33
2023-06-15T23:00:50.872Z,18.09
2023-06-15T23:03:19.070Z,17.27
2023-06-15T23:05:47.231Z,17.47
2023-06-15T23:08:22.721Z,18.18
2023-06-15T23:10:51.793Z,18.65
2023-06-15T23:13:21.920Z,18.63
2023-06-15T23:15:54.032Z,19.52
2023-06-15T23:18:32.665Z,19.53
2023-06-15T23:21:00.762Z,18.91
2023-06-15T23:23:28.868Z,19.62
2023-06-15T23:25:57.587Z,19.53
2023-06-15T23:28:25.294Z,19.76
2023-06-15T23:30:53.060Z,20.13
2023-06-15T23:33:21.053Z,20.06
2023-06-15T23:35:48.914Z,19.77
2023-06-15T23:38:16.588Z,20.20
2023-06-15T23:40:44.482Z,20.24
2023-06-15T23:43:12.144Z,19.85
2023-06-15T23:45:39.931Z,19.83
2023-06-15T23:48:08.552Z,19.69
2023-06-15T23:50:36.522Z,19.99
2023-06-15T23:53:05.403Z,20.29
2023-06-15T23:55:33.463Z,19.28
2023-06-15T23:58:01.172Z,19.45
